METAR Data
IDs: Format: Raw Decoded Include TAF

Data at: 1118 UTC 28 Sep 2021

METAR for:TKPK (St Kitts/Bradshaw In, K, AT)
Text:TKPK 281100Z 09006KT 9999 FEW020 28/24 Q1013
Temperature: 28.0°C ( 82°F)
Dewpoint: 24.0°C ( 75°F) [RH = 79%]
Pressure (altimeter):29.91 inches Hg (1013.0 mb)
Winds:from the E (90 degrees) at 7 MPH (6 knots; 3.1 m/s)
Visibility:6 or more sm (10+ km)
Ceiling:at least 12,000 feet AGL
Clouds: few clouds at 2000 feet AGL